Time;durP1;ratioP1;P1;durP2;ratioP2;P2;SDS_P1;SDS_P2;PMS_P1;PMS_P2;Temp;Humidity;BMP_temperature;BMP_pressure;BME280_temperature;BME280_humidity;BME280_pressure;Samples;Min_cycle;Max_cycle;Signal;HPM_P1;HPM_P2
2022/12/10 00:01:33;;;;;;;51.30;24.70;;;;;;;-143.84;99.21;43956.25;5090404;28;21035;-71
2022/12/10 00:04:02;;;;;;;50.20;23.43;;;;;;;-143.84;99.12;43969.59;5090725;28;20446;-71
2022/12/10 00:06:32;;;;;;;52.73;25.03;;;;;;;-143.84;99.34;43965.78;5090555;28;20447;-71
2022/12/10 00:09:00;;;;;;;49.93;22.67;;;;;;;-143.84;99.24;43960.06;5090589;28;20451;-72
2022/12/10 00:11:28;;;;;;;61.23;26.83;;;;;;;-143.84;99.46;43960.06;5090481;28;20434;-71
2022/12/10 00:13:56;;;;;;;43.90;23.40;;;;;;;-143.84;99.38;43950.53;5090186;28;20436;-72
2022/12/10 00:16:25;;;;;;;50.00;25.80;;;;;;;-143.84;99.63;43965.78;5090477;28;20520;-72
2022/12/10 00:18:53;;;;;;;44.00;26.53;;;;;;;-143.84;99.31;43948.63;5090165;28;20494;-72
2022/12/10 00:21:23;;;;;;;56.73;26.97;;;;;;;-143.84;98.86;43960.06;5089964;28;20439;-71
2022/12/10 00:23:51;;;;;;;60.07;26.73;;;;;;;-143.84;98.39;43937.22;5090018;28;20501;-71
2022/12/10 00:26:21;;;;;;;58.20;25.77;;;;;;;-143.84;98.28;43935.31;5089991;28;20447;-71
2022/12/10 00:28:49;;;;;;;56.43;26.80;;;;;;;-143.84;98.48;43931.50;5090099;28;20504;-72
2022/12/10 00:31:18;;;;;;;55.80;27.50;;;;;;;-143.84;98.60;43916.28;5089834;28;20462;-72
2022/12/10 00:33:46;;;;;;;51.33;25.77;;;;;;;-143.84;98.51;43910.56;5089637;28;20501;-72
2022/12/10 00:36:15;;;;;;;57.87;26.10;;;;;;;-143.84;98.64;43952.44;5089568;28;20442;-72
2022/12/10 00:38:45;;;;;;;51.43;26.60;;;;;;;-143.84;98.71;43958.16;5089614;28;20443;-72
2022/12/10 00:41:13;;;;;;;60.03;28.37;;;;;;;-143.84;99.16;43954.34;5090016;28;20493;-71
2022/12/10 00:43:40;;;;;;;61.13;27.03;;;;;;;-143.84;99.14;43969.59;5089552;28;20447;-71
2022/12/10 00:46:07;;;;;;;54.13;27.03;;;;;;;-143.84;99.26;43984.81;5089752;28;20933;-72
2022/12/10 00:48:35;;;;;;;49.60;26.97;;;;;;;-143.84;99.07;43969.59;5089573;28;20509;-72
2022/12/10 00:51:04;;;;;;;54.00;26.90;;;;;;;-143.84;99.12;43935.31;5089229;28;20547;-72
2022/12/10 00:53:33;;;;;;;51.27;28.50;;;;;;;-143.84;98.89;43944.84;5090018;28;20432;-72
2022/12/10 00:56:03;;;;;;;66.27;27.00;;;;;;;-143.84;98.55;43944.84;5089408;28;21032;-72
2022/12/10 00:58:32;;;;;;;76.20;29.27;;;;;;;-143.84;98.55;43937.22;5089445;28;20448;-72
2022/12/10 01:01:08;;;;;;;47.93;26.10;;;;;;;-143.84;98.21;43933.41;5089508;28;20508;-72
2022/12/10 01:03:36;;;;;;;56.80;27.17;;;;;;;-143.84;98.07;43931.50;5089138;28;20448;-71
2022/12/10 01:06:12;;;;;;;69.90;28.37;;;;;;;-143.84;98.15;43910.56;5089344;28;20501;-72
2022/12/10 01:08:40;;;;;;;55.10;25.40;;;;;;;-143.84;97.92;43935.31;5089226;28;20491;-71
2022/12/10 01:11:10;;;;;;;70.40;27.93;;;;;;;-143.84;98.06;43939.13;5089741;28;20466;-72
2022/12/10 01:13:37;;;;;;;54.47;28.47;;;;;;;-143.84;98.12;43925.78;5089207;28;20447;-72
2022/12/10 01:16:06;;;;;;;60.40;28.13;;;;;;;-143.84;98.09;43925.78;5088951;28;20474;-72
2022/12/10 01:18:34;;;;;;;50.63;27.90;;;;;;;-143.84;98.09;43914.38;5089061;28;20443;-72
2022/12/10 01:21:06;;;;;;;47.70;27.23;;;;;;;-143.84;97.61;43927.69;5088927;28;20530;-72
2022/12/10 01:23:34;;;;;;;67.77;26.67;;;;;;;-143.84;97.04;43910.56;5089077;28;20849;-72
2022/12/10 01:26:02;;;;;;;54.87;26.20;;;;;;;-143.84;97.11;43902.97;5089044;28;20450;-72
2022/12/10 01:28:33;;;;;;;50.23;23.87;;;;;;;-143.84;97.12;43882.00;5088810;28;20926;-72
2022/12/10 01:31:03;;;;;;;53.10;25.57;;;;;;;-143.84;96.95;43880.13;5089082;28;20447;-72
2022/12/10 01:33:31;;;;;;;48.93;26.40;;;;;;;-143.84;96.93;43876.31;5090106;28;20440;-72
2022/12/10 01:36:02;;;;;;;68.53;36.83;;;;;;;-143.84;96.90;43880.13;5092726;28;20479;-72
2022/12/10 01:38:29;;;;;;;67.53;33.47;;;;;;;-143.84;96.69;43899.16;5093063;28;20950;-72
2022/12/10 01:40:56;;;;;;;54.63;30.13;;;;;;;-143.84;96.64;43887.72;5093589;28;20443;-72
2022/12/10 01:43:23;;;;;;;50.70;29.23;;;;;;;-143.84;96.73;43889.63;5092890;28;20432;-72
2022/12/10 01:45:52;;;;;;;55.13;24.30;;;;;;;-143.84;96.73;43872.50;5092904;28;20455;-72
2022/12/10 01:48:19;;;;;;;57.13;27.20;;;;;;;-143.84;96.64;43895.34;5093206;28;20847;-71
2022/12/10 01:50:47;;;;;;;47.60;25.43;;;;;;;-143.84;96.95;43874.41;5092823;28;20491;-72
2022/12/10 01:53:15;;;;;;;53.27;25.20;;;;;;;-143.84;97.57;43897.25;5092857;28;20505;-71
2022/12/10 01:55:47;;;;;;;47.10;26.17;;;;;;;-143.84;98.11;43937.22;5091891;28;21105;-72
2022/12/10 01:58:17;;;;;;;48.80;26.73;;;;;;;-143.84;98.63;43914.38;5092916;28;20462;-72
2022/12/10 02:00:55;;;;;;;79.77;28.67;;;;;;;-143.84;98.94;43944.84;5092819;28;20451;-72
2022/12/10 02:03:33;;;;;;;61.37;26.17;;;;;;;-143.84;99.20;43956.25;5092900;28;20556;-72
2022/12/10 02:06:11;;;;;;;54.23;25.97;;;;;;;-143.84;99.09;43958.16;5092814;28;20450;-72
2022/12/10 02:08:45;;;;;;;44.83;25.57;;;;;;;-143.84;99.46;43960.06;5093001;28;20463;-71
2022/12/10 02:11:18;;;;;;;52.03;26.37;;;;;;;-143.84;99.81;43975.28;5092378;28;20474;-72
2022/12/10 02:13:54;;;;;;;57.80;25.53;;;;;;;-143.84;99.94;43982.91;5092555;28;20535;-72
2022/12/10 02:16:28;;;;;;;62.53;26.60;;;;;;;-143.84;99.55;43973.38;5092268;28;20551;-72
2022/12/10 02:18:59;;;;;;;52.43;27.20;;;;;;;-143.84;99.71;43977.19;5092797;28;21091;-72
2022/12/10 02:21:32;;;;;;;49.10;27.60;;;;;;;-143.84;99.51;43948.63;5092468;28;20477;-72
2022/12/10 02:24:04;;;;;;;74.53;28.03;;;;;;;-143.84;99.37;43960.06;5092438;28;20447;-72
2022/12/10 02:26:42;;;;;;;65.30;27.10;;;;;;;-143.84;99.52;43960.06;5092249;28;20439;-72
2022/12/10 02:29:16;;;;;;;71.90;26.47;;;;;;;-143.84;99.03;43958.16;5092657;28;20431;-72
2022/12/10 02:31:47;;;;;;;58.43;28.10;;;;;;;-143.84;99.34;43992.41;5092195;28;20440;-72
2022/12/10 02:34:17;;;;;;;67.50;28.10;;;;;;;-143.84;99.29;43965.78;5092012;28;20503;-72
2022/12/10 02:36:47;;;;;;;53.23;25.77;;;;;;;-143.84;98.67;43948.63;5092033;28;20444;-72
2022/12/10 02:39:21;;;;;;;56.83;27.10;;;;;;;-143.84;98.66;43952.44;5092190;28;20447;-72
2022/12/10 02:41:53;;;;;;;62.40;25.73;;;;;;;-143.84;98.76;43927.69;5091866;28;20451;-71
2022/12/10 02:44:24;;;;;;;66.23;26.57;;;;;;;-143.84;98.46;43920.09;5091893;28;20835;-71
2022/12/10 02:46:54;;;;;;;55.83;25.27;;;;;;;-143.84;98.43;43935.31;5091961;28;20440;-71
2022/12/10 02:49:23;;;;;;;48.40;25.07;;;;;;;-143.84;98.45;43958.16;5091731;28;20857;-72
2022/12/10 02:51:50;;;;;;;54.47;25.90;;;;;;;-143.84;98.46;43937.22;5091629;28;20487;-72
2022/12/10 02:54:39;;;;;;;47.53;24.60;;;;;;;-143.84;98.78;43950.53;5091854;28;20444;-71
2022/12/10 02:57:19;;;;;;;55.17;25.73;;;;;;;-143.84;98.83;43948.63;5091946;28;20432;-72
2022/12/10 03:00:16;;;;;;;48.50;24.67;;;;;;;-143.84;99.29;43958.16;5091509;28;20440;-72
2022/12/10 03:03:16;;;;;;;54.60;25.90;;;;;;;-143.84;99.66;43971.47;5084883;28;20455;-71
2022/12/10 03:05:50;;;;;;;50.60;24.10;;;;;;;-143.84;100.00;43990.53;5091328;28;20521;-71
2022/12/10 03:08:22;;;;;;;54.60;25.10;;;;;;;-143.84;100.00;44009.56;5091575;28;20506;-71
2022/12/10 03:10:56;;;;;;;41.90;22.50;;;;;;;-143.84;100.00;44022.88;5091375;28;20880;-72
2022/12/10 03:13:29;;;;;;;59.17;23.87;;;;;;;-143.84;100.00;44038.09;5091498;28;20930;-72
2022/12/10 03:16:00;;;;;;;53.30;23.33;;;;;;;-143.84;100.00;44041.91;5091313;28;20471;-72
2022/12/10 03:18:28;;;;;;;55.17;24.30;;;;;;;-143.84;100.00;44028.59;5090788;28;20463;-72
2022/12/10 03:20:59;;;;;;;45.97;24.97;;;;;;;-143.84;100.00;44049.53;5070750;28;20440;-71
2022/12/10 03:23:29;;;;;;;48.73;25.13;;;;;;;-143.84;100.00;44034.31;5070794;28;20448;-72
2022/12/10 03:25:56;;;;;;;52.40;24.47;;;;;;;-143.84;100.00;44030.50;5069955;28;20476;-72
2022/12/10 03:28:27;;;;;;;50.53;23.87;;;;;;;-143.84;100.00;44005.75;5070303;28;20437;-72
2022/12/10 03:30:58;;;;;;;53.30;24.90;;;;;;;-143.84;100.00;44013.38;5070863;28;20444;-71
2022/12/10 03:33:25;;;;;;;55.67;22.40;;;;;;;-143.84;100.00;44009.56;5074161;28;20513;-72
2022/12/10 03:35:52;;;;;;;42.77;22.47;;;;;;;-143.84;100.00;44015.25;5090969;28;20487;-72
2022/12/10 03:38:20;;;;;;;58.30;22.60;;;;;;;-143.84;100.00;44020.97;5091119;28;20446;-71
2022/12/10 03:40:47;;;;;;;49.50;22.33;;;;;;;-143.84;100.00;44017.16;5091028;28;20439;-71
2022/12/10 03:43:14;;;;;;;52.60;22.30;;;;;;;-143.84;100.00;44024.78;5090868;28;20493;-71
2022/12/10 03:45:42;;;;;;;53.97;21.73;;;;;;;-143.84;100.00;44049.53;5091001;28;20477;-72
2022/12/10 03:48:11;;;;;;;50.97;21.07;;;;;;;-143.84;100.00;44036.22;5090835;28;20435;-72
2022/12/10 03:50:38;;;;;;;46.93;22.50;;;;;;;-143.84;100.00;44032.41;5090653;28;20504;-72
2022/12/10 03:53:05;;;;;;;55.77;22.37;;;;;;;-143.84;100.00;44019.06;5090644;28;20466;-72
2022/12/10 03:55:33;;;;;;;56.67;20.27;;;;;;;-143.84;100.00;44034.31;5089948;28;20480;-72
2022/12/10 03:58:00;;;;;;;44.43;21.47;;;;;;;-143.84;100.00;44020.97;5090580;28;20530;-72
2022/12/10 04:00:27;;;;;;;38.80;20.80;;;;;;;-143.84;100.00;44001.94;5090570;28;20442;-71
2022/12/10 04:02:54;;;;;;;56.87;23.23;;;;;;;-143.84;100.00;44020.97;5090593;28;20457;-73
2022/12/10 04:05:23;;;;;;;45.43;20.63;;;;;;;-143.84;100.00;44009.56;5090219;28;20982;-73
2022/12/10 04:07:50;;;;;;;44.60;20.03;;;;;;;-143.84;100.00;44030.50;5090148;28;20500;-73
2022/12/10 04:10:18;;;;;;;53.03;19.93;;;;;;;-143.84;100.00;44017.16;5090493;28;20447;-73
2022/12/10 04:16:26;;;;;;;40.50;19.67;;;;;;;-143.84;100.00;44022.88;5090162;28;20491;-73
2022/12/10 04:18:18;;;;;;;50.67;20.60;;;;;;;-143.84;100.00;44040.00;5090215;28;20442;-74
2022/12/10 04:28:59;;;;;;;35.97;17.50;;;;;;;-143.84;100.00;44036.22;5089906;28;20420;-73
2022/12/10 04:31:26;;;;;;;37.73;17.27;;;;;;;-143.84;100.00;44024.78;5089503;28;20437;-73
2022/12/10 04:33:53;;;;;;;35.90;16.83;;;;;;;-143.84;99.98;44015.25;5089551;28;20499;-73
2022/12/10 04:36:22;;;;;;;43.60;16.93;;;;;;;-143.84;99.66;44009.56;5089669;28;20536;-73
2022/12/10 04:38:49;;;;;;;51.33;18.00;;;;;;;-143.84;99.49;43992.41;5089497;28;20504;-73
2022/12/10 04:41:16;;;;;;;47.10;17.50;;;;;;;-143.84;99.20;43982.91;5089639;28;20991;-73
2022/12/10 04:43:44;;;;;;;51.03;18.23;;;;;;;-143.84;98.91;43979.09;5089625;28;20447;-72
2022/12/10 04:46:11;;;;;;;37.60;17.33;;;;;;;-143.84;98.79;43977.19;5089527;28;20481;-73
2022/12/10 04:48:39;;;;;;;40.07;16.80;;;;;;;-143.84;98.48;43961.97;5089541;28;20957;-73
2022/12/10 04:51:06;;;;;;;33.23;17.27;;;;;;;-143.84;98.35;43965.78;5089133;28;20475;-73
2022/12/10 04:53:35;;;;;;;32.17;16.17;;;;;;;-143.84;98.12;43958.16;5089289;28;20438;-73
2022/12/10 04:56:04;;;;;;;41.53;19.63;;;;;;;-143.84;98.24;43967.69;5089681;28;20475;-72
2022/12/10 04:58:32;;;;;;;48.63;18.10;;;;;;;-143.84;97.76;43941.03;5089572;28;20550;-72
2022/12/10 05:01:03;;;;;;;44.07;16.50;;;;;;;-143.84;97.50;43927.69;5089459;28;20435;-72
2022/12/10 05:03:31;;;;;;;33.43;17.03;;;;;;;-143.84;97.26;43935.31;5089580;28;20439;-72
2022/12/10 05:06:02;;;;;;;38.50;14.77;;;;;;;-143.84;96.93;43908.66;5089219;28;20954;-72
2022/12/10 05:08:29;;;;;;;50.43;16.73;;;;;;;-143.84;96.75;43918.19;5088625;28;20444;-72
2022/12/10 05:11:01;;;;;;;32.70;17.10;;;;;;;-143.84;96.17;43897.25;5089249;28;20502;-72
2022/12/10 05:13:29;;;;;;;59.00;17.80;;;;;;;-143.84;96.16;43897.25;5089191;28;20451;-72
2022/12/10 05:15:56;;;;;;;37.60;18.20;;;;;;;-143.84;96.24;43895.34;5088874;28;20529;-72
2022/12/10 05:18:23;;;;;;;39.10;17.13;;;;;;;-143.84;96.13;43912.47;5089116;28;20920;-72
2022/12/10 05:20:50;;;;;;;41.77;19.50;;;;;;;-143.84;96.19;43906.75;5088994;28;20443;-72
2022/12/10 05:23:29;;;;;;;36.80;15.33;;;;;;;-143.84;96.40;43914.38;5089125;28;20922;-71
2022/12/10 05:26:02;;;;;;;35.53;15.93;;;;;;;-143.84;96.67;43906.75;5089069;28;20526;-71
2022/12/10 05:28:31;;;;;;;41.27;16.70;;;;;;;-143.84;96.61;43912.47;5089250;28;20497;-72
2022/12/10 05:30:59;;;;;;;43.33;18.47;;;;;;;-143.84;96.73;43918.19;5088901;28;20447;-72
2022/12/10 05:33:26;;;;;;;41.87;16.53;;;;;;;-143.84;96.47;43897.25;5088906;28;20440;-72
2022/12/10 05:35:55;;;;;;;42.10;16.10;;;;;;;-143.84;96.24;43914.38;5085770;28;20571;-72
2022/12/10 05:38:22;;;;;;;52.70;17.47;;;;;;;-143.84;96.13;43878.22;5088993;28;20880;-71
2022/12/10 05:40:50;;;;;;;57.47;19.07;;;;;;;-143.84;95.99;43904.84;5088262;28;20441;-72
2022/12/10 05:43:18;;;;;;;38.70;16.63;;;;;;;-143.84;95.90;43904.84;5088815;28;20439;-71
2022/12/10 05:45:46;;;;;;;32.40;16.60;;;;;;;-143.84;95.83;43902.97;5089374;28;20451;-72
2022/12/10 05:48:16;;;;;;;45.63;17.07;;;;;;;-143.84;95.61;43906.75;5089275;28;21309;-72
2022/12/10 05:50:44;;;;;;;48.80;18.93;;;;;;;-143.84;95.26;43862.97;5088812;28;20478;-72
2022/12/10 05:53:13;;;;;;;38.07;19.07;;;;;;;-143.84;95.20;43876.31;5088942;28;20432;-72
2022/12/10 05:55:41;;;;;;;46.53;17.80;;;;;;;-143.84;94.91;43872.50;5088865;28;21079;-72
2022/12/10 05:58:08;;;;;;;36.33;16.93;;;;;;;-143.84;94.95;43883.91;5089092;28;20572;-72
2022/12/10 06:00:41;;;;;;;44.37;19.37;;;;;;;-143.84;95.05;43864.88;5088982;28;20871;-72
2022/12/10 06:03:08;;;;;;;40.97;18.17;;;;;;;-143.84;94.72;43902.97;5088938;28;20844;-72
2022/12/10 06:05:38;;;;;;;38.47;18.00;;;;;;;-143.84;94.69;43847.75;5088492;28;20448;-72
2022/12/10 06:08:05;;;;;;;54.37;19.10;;;;;;;-143.84;94.68;43861.06;5088572;28;20497;-71
2022/12/10 06:10:32;;;;;;;36.93;18.03;;;;;;;-143.84;94.65;43883.91;5088774;28;20936;-72
2022/12/10 06:12:59;;;;;;;42.37;20.10;;;;;;;-143.84;94.56;43878.22;5088741;28;20437;-72
2022/12/10 06:15:26;;;;;;;39.57;19.00;;;;;;;-143.84;94.55;43866.78;5088744;28;20438;-72
2022/12/10 06:17:55;;;;;;;37.63;18.20;;;;;;;-143.84;94.69;43861.06;5088715;28;20996;-72
2022/12/10 06:20:22;;;;;;;50.60;18.83;;;;;;;-143.84;94.74;43864.88;5091594;28;20447;-72
2022/12/10 06:22:50;;;;;;;57.23;19.57;;;;;;;-143.84;94.89;43876.31;5092228;28;20445;-72
2022/12/10 06:25:17;;;;;;;45.57;17.50;;;;;;;-143.84;94.79;43872.50;5091988;28;20441;-72
2022/12/10 06:27:44;;;;;;;39.93;15.97;;;;;;;-143.84;94.56;43870.59;5092135;28;20449;-72
2022/12/10 06:30:12;;;;;;;38.67;15.20;;;;;;;-143.84;94.46;43851.56;5092266;28;20439;-72
2022/12/10 06:32:42;;;;;;;43.43;16.00;;;;;;;-143.84;94.56;43872.50;5091847;28;20506;-71
2022/12/10 06:35:11;;;;;;;42.80;16.53;;;;;;;-143.84;94.50;43857.28;5091922;28;20491;-73
2022/12/10 06:37:39;;;;;;;55.97;17.27;;;;;;;-143.84;94.34;43874.41;5091831;28;20480;-71
2022/12/10 06:40:08;;;;;;;46.77;17.50;;;;;;;-143.84;94.30;43880.13;5091765;28;20448;-73
2022/12/10 06:42:35;;;;;;;53.20;15.70;;;;;;;-143.84;94.38;43878.22;5091908;28;20502;-71
2022/12/10 06:45:02;;;;;;;48.07;16.23;;;;;;;-143.84;94.19;43876.31;5091810;28;20441;-71
2022/12/10 06:47:29;;;;;;;33.60;17.37;;;;;;;-143.84;94.00;43876.31;5091636;28;20504;-71
2022/12/10 06:49:56;;;;;;;48.10;16.00;;;;;;;-143.84;94.05;43857.28;5091627;28;20458;-71
2022/12/10 06:52:24;;;;;;;38.73;15.27;;;;;;;-143.84;93.90;43876.31;5091758;28;20444;-71
2022/12/10 06:54:53;;;;;;;44.07;17.17;;;;;;;-143.84;93.84;43906.75;5091759;28;20511;-71
2022/12/10 06:57:20;;;;;;;44.63;15.80;;;;;;;-143.84;93.56;43895.34;5091467;28;20990;-71
2022/12/10 06:59:48;;;;;;;36.77;16.13;;;;;;;-143.84;93.14;43954.34;5091538;28;20499;-71
2022/12/10 07:02:15;;;;;;;25.50;12.97;;;;;;;-143.84;92.89;43963.88;5090648;28;20464;-73
2022/12/10 07:04:42;;;;;;;39.23;15.87;;;;;;;-143.84;92.68;43965.78;5098192;28;20871;-73
2022/12/10 07:07:09;;;;;;;37.87;16.87;;;;;;;-143.84;92.63;43958.16;5092180;28;20446;-74
2022/12/10 07:09:38;;;;;;;35.10;16.07;;;;;;;-143.84;92.31;44005.75;5091716;28;20446;-73
2022/12/10 07:12:05;;;;;;;52.67;18.53;;;;;;;-143.84;92.63;44009.56;5092047;28;20512;-72
2022/12/10 07:14:32;;;;;;;50.77;18.63;;;;;;;-143.84;92.16;44024.78;5091397;28;20424;-73
2022/12/10 07:17:02;;;;;;;44.40;17.27;;;;;;;-143.84;91.92;44078.09;5090540;28;20552;-73
2022/12/10 07:19:29;;;;;;;39.87;16.83;;;;;;;-143.84;91.94;44089.50;5091408;28;20445;-73
2022/12/10 07:21:56;;;;;;;37.00;15.73;;;;;;;-143.84;91.29;44175.16;5091229;28;20986;-73
2022/12/10 07:24:24;;;;;;;43.77;16.00;;;;;;;-143.84;91.07;44178.97;5091321;28;20447;-72
2022/12/10 07:26:53;;;;;;;31.90;16.73;;;;;;;-143.84;90.80;44266.53;5091366;28;20830;-73
2022/12/10 07:29:22;;;;;;;36.03;17.07;;;;;;;-143.84;90.66;44298.91;5091183;28;20451;-73
2022/12/10 07:31:50;;;;;;;36.30;17.13;;;;;;;-143.84;90.58;44316.03;5090010;28;20435;-72
2022/12/10 07:34:18;;;;;;;29.80;17.13;;;;;;;-143.84;90.59;44329.38;5092024;28;20793;-73
2022/12/10 07:36:45;;;;;;;43.37;16.97;;;;;;;-143.84;90.20;44426.47;5091661;28;20474;-73
2022/12/10 07:39:17;;;;;;;53.23;18.27;;;;;;;-143.84;90.29;44420.75;5090857;28;20512;-73
2022/12/10 07:41:45;;;;;;;38.87;17.00;;;;;;;-143.84;90.32;44418.84;5090198;28;20451;-73
2022/12/10 07:44:14;;;;;;;42.50;18.27;;;;;;;-143.84;90.72;44348.41;5090529;28;20831;-74
2022/12/10 07:46:41;;;;;;;37.23;16.90;;;;;;;-143.84;91.10;44260.84;5090413;28;20517;-74
2022/12/10 07:49:09;;;;;;;36.93;15.43;;;;;;;-143.84;91.04;44234.19;5090065;28;20451;-74
2022/12/10 07:51:36;;;;;;;37.50;14.00;;;;;;;-143.84;91.28;44245.59;5090108;28;20552;-74
2022/12/10 07:54:03;;;;;;;43.10;14.93;;;;;;;-143.84;91.20;44213.25;5090726;28;20462;-74
2022/12/10 07:56:30;;;;;;;29.27;14.13;;;;;;;-143.84;91.40;44192.31;5090411;28;20478;-74
2022/12/10 07:58:57;;;;;;;38.40;14.87;;;;;;;-143.84;91.34;44177.06;5090592;28;20582;-74
2022/12/10 08:01:27;;;;;;;31.70;15.10;;;;;;;-143.84;91.07;44199.91;5089998;28;20446;-74
2022/12/10 08:03:57;;;;;;;33.77;14.73;;;;;;;-143.84;90.99;44283.69;5090317;28;20443;-74
2022/12/10 08:06:25;;;;;;;50.40;15.87;;;;;;;-143.84;90.97;44253.22;5089814;28;20454;-74
2022/12/10 08:08:53;;;;;;;41.87;15.57;;;;;;;-143.84;90.64;44321.75;5089699;28;20548;-74
2022/12/10 08:11:22;;;;;;;37.73;14.07;;;;;;;-143.84;90.61;44321.75;5090009;28;20534;-74
2022/12/10 08:13:49;;;;;;;45.10;16.97;;;;;;;-143.84;90.61;44369.34;5089123;28;20448;-73
2022/12/10 08:16:18;;;;;;;43.07;16.93;;;;;;;-143.84;90.85;44300.81;5086114;28;20810;-74
2022/12/10 08:18:47;;;;;;;35.73;19.30;;;;;;;-143.84;90.68;44304.63;5089886;28;20514;-74
2022/12/10 08:21:16;;;;;;;44.77;17.60;;;;;;;-143.84;90.24;44435.97;5089916;28;20454;-74
2022/12/10 08:23:44;;;;;;;42.73;16.03;;;;;;;-143.84;89.90;44512.13;5089775;28;20443;-74
2022/12/10 08:26:13;;;;;;;32.60;12.97;;;;;;;-143.84;89.51;44620.66;5089840;28;20454;-74
2022/12/10 08:28:41;;;;;;;27.43;12.77;;;;;;;-143.84;89.60;44584.47;5089640;28;20921;-74
2022/12/10 08:31:11;;;;;;;36.90;12.50;;;;;;;-143.84;89.67;44548.31;5089247;28;20493;-74
2022/12/10 08:33:39;;;;;;;28.43;11.40;;;;;;;-143.84;90.01;44567.34;5089617;28;20976;-74
2022/12/10 08:36:10;;;;;;;34.00;11.60;;;;;;;-143.84;89.41;44601.63;5089626;28;20930;-74
2022/12/10 08:38:37;;;;;;;37.27;13.80;;;;;;;-143.84;89.45;44628.28;5090335;28;20439;-77
2022/12/10 08:41:08;;;;;;;29.33;14.00;;;;;;;-143.84;89.30;44628.28;5089912;28;20449;-74
2022/12/10 08:43:36;;;;;;;48.73;14.27;;;;;;;-143.84;89.27;44634.00;5088560;28;20513;-74
2022/12/10 08:46:03;;;;;;;32.90;14.30;;;;;;;-143.84;89.25;44641.59;5089430;28;20937;-76
2022/12/10 08:48:31;;;;;;;32.93;14.33;;;;;;;-143.84;89.10;44662.53;5089674;28;20991;-76
2022/12/10 08:50:58;;;;;;;29.37;14.40;;;;;;;-143.84;89.04;44687.28;5089307;28;20927;-75
2022/12/10 08:53:27;;;;;;;32.93;14.40;;;;;;;-143.84;88.75;44712.06;5089565;28;20498;-75
2022/12/10 08:55:55;;;;;;;38.13;15.83;;;;;;;-143.84;88.76;44750.13;5089755;28;20444;-74
2022/12/10 08:58:23;;;;;;;39.37;16.70;;;;;;;-143.84;88.65;44734.91;5089287;28;20479;-75
2022/12/10 09:00:51;;;;;;;32.50;12.87;;;;;;;-143.84;88.45;44748.22;5089214;28;20500;-76
2022/12/10 09:03:19;;;;;;;36.80;14.27;;;;;;;-143.84;88.43;44755.84;5090226;28;20824;-77
2022/12/10 09:05:47;;;;;;;29.40;14.30;;;;;;;-143.84;88.59;44767.25;5089917;28;20493;-74
2022/12/10 09:08:14;;;;;;;32.17;11.83;;;;;;;-143.84;87.87;44803.44;5090026;28;20512;-75
2022/12/10 09:10:43;;;;;;;35.53;13.50;;;;;;;-143.84;88.17;44809.16;5089345;28;20443;-75
2022/12/10 09:13:11;;;;;;;28.63;11.57;;;;;;;-143.84;87.50;44835.81;5089305;28;20452;-75
2022/12/10 09:15:38;;;;;;;26.63;11.03;;;;;;;-143.84;87.20;44873.88;5089195;28;20440;-75
2022/12/10 09:18:05;;;;;;;31.70;11.77;;;;;;;-143.84;85.85;44974.81;5089382;28;20529;-75
2022/12/10 09:20:33;;;;;;;41.13;11.67;;;;;;;-143.84;86.16;44942.44;5089596;28;20466;-75
2022/12/10 09:23:00;;;;;;;26.73;11.40;;;;;;;-143.84;85.80;44969.09;5089047;28;20542;-75
2022/12/10 09:25:28;;;;;;;31.87;10.50;;;;;;;-143.84;85.31;45016.69;5088606;28;20456;-75
2022/12/10 09:27:56;;;;;;;36.10;12.70;;;;;;;-143.84;85.31;44982.41;5088622;28;20448;-75
2022/12/10 09:30:24;;;;;;;33.47;11.57;;;;;;;-143.84;85.13;44990.03;5086391;28;20456;-75
2022/12/10 09:32:51;;;;;;;32.53;10.73;;;;;;;-143.84;84.39;45022.41;5088016;28;20458;-75
2022/12/10 09:35:19;;;;;;;28.13;11.13;;;;;;;-143.84;84.41;45049.06;5088376;28;20440;-75
2022/12/10 09:37:47;;;;;;;27.43;10.87;;;;;;;-143.84;84.03;45045.25;5087425;28;20542;-75
2022/12/10 09:40:17;;;;;;;26.17;10.17;;;;;;;-143.84;84.22;45064.31;5088339;28;20443;-75
2022/12/10 09:42:55;;;;;;;38.73;10.67;;;;;;;-143.84;84.14;45039.53;5088617;28;20536;-75
2022/12/10 09:45:31;;;;;;;21.53;9.80;;;;;;;-143.84;83.69;45050.97;5087423;28;20466;-75
2022/12/10 09:48:07;;;;;;;35.07;10.57;;;;;;;-143.84;83.97;45016.69;5084846;28;21221;-75
2022/12/10 09:50:42;;;;;;;27.73;11.83;;;;;;;-143.84;84.40;45022.41;5085298;28;20480;-75
2022/12/10 09:53:16;;;;;;;45.53;11.30;;;;;;;-143.84;84.21;45024.31;5088039;28;20509;-75
2022/12/10 09:55:47;;;;;;;38.93;10.03;;;;;;;-143.84;84.38;45035.75;5091696;28;20448;-75
2022/12/10 09:58:19;;;;;;;35.50;10.30;;;;;;;-143.84;84.35;45050.97;5092131;28;20487;-75
2022/12/10 10:00:49;;;;;;;32.93;10.97;;;;;;;-143.84;84.66;45026.22;5091734;28;20459;-75
2022/12/10 10:03:17;;;;;;;33.57;12.20;;;;;;;-143.84;84.51;45045.25;5092750;28;20472;-75
2022/12/10 10:05:48;;;;;;;24.37;11.13;;;;;;;-143.84;84.92;45037.66;5092759;28;20443;-75
2022/12/10 10:08:24;;;;;;;20.97;10.53;;;;;;;-143.84;85.32;45001.47;5093345;28;20466;-75
2022/12/10 10:10:51;;;;;;;25.17;9.27;;;;;;;-143.84;84.81;45037.66;5092717;28;20933;-75
2022/12/10 10:13:29;;;;;;;31.53;11.63;;;;;;;-143.84;84.96;45026.22;5092585;28;20949;-75
2022/12/10 10:15:59;;;;;;;29.53;11.00;;;;;;;-143.84;85.14;44999.56;5092091;28;20446;-75
2022/12/10 10:18:34;;;;;;;37.13;13.40;;;;;;;-143.84;85.40;45024.31;5093086;28;20475;-75
2022/12/10 10:21:03;;;;;;;24.80;11.00;;;;;;;-143.84;85.44;45022.41;5092689;28;20424;-75
2022/12/10 10:23:30;;;;;;;25.07;9.97;;;;;;;-143.84;85.84;45001.47;5092667;28;20572;-75
2022/12/10 10:25:58;;;;;;;28.17;12.00;;;;;;;-143.84;86.03;44974.81;5092278;28;20439;-75
2022/12/10 10:28:25;;;;;;;23.77;10.90;;;;;;;-143.84;86.25;44988.13;5092458;28;20969;-75
2022/12/10 10:30:54;;;;;;;27.27;11.90;;;;;;;-143.84;86.51;44965.28;5092433;28;20431;-75
2022/12/10 10:33:23;;;;;;;31.90;11.30;;;;;;;-143.84;86.31;44990.03;5092286;28;20535;-75
2022/12/10 10:35:55;;;;;;;32.80;11.67;;;;;;;-143.84;86.36;44971.00;5092279;28;20474;-75
2022/12/10 10:38:24;;;;;;;23.83;11.27;;;;;;;-143.84;86.03;44986.22;5092123;28;20518;-75
2022/12/10 10:40:53;;;;;;;31.23;12.20;;;;;;;-143.84;85.80;45005.28;5092556;28;20842;-75
2022/12/10 10:43:24;;;;;;;34.17;13.17;;;;;;;-143.84;85.90;44982.41;5092261;28;20442;-75
2022/12/10 10:45:57;;;;;;;29.13;9.97;;;;;;;-143.84;86.07;44980.53;5091560;28;20930;-75
2022/12/10 10:48:28;;;;;;;28.93;11.20;;;;;;;-143.84;86.37;44976.72;5090963;28;20436;-75
2022/12/10 10:50:57;;;;;;;20.47;9.60;;;;;;;-143.84;86.41;44972.91;5090694;28;20520;-75
2022/12/10 10:53:33;;;;;;;30.67;10.57;;;;;;;-143.84;85.82;44982.41;5090989;28;20509;-74
2022/12/10 10:56:09;;;;;;;26.30;9.73;;;;;;;-143.84;86.24;44940.53;5089175;28;20459;-73
2022/12/10 10:58:37;;;;;;;29.63;11.80;;;;;;;-143.84;84.10;45026.22;5092348;28;20562;-76
2022/12/10 11:01:07;;;;;;;25.33;9.13;;;;;;;-143.84;82.70;45083.34;5093049;28;20873;-74
2022/12/10 11:03:38;;;;;;;27.80;8.37;;;;;;;-143.84;79.94;45134.75;5095227;28;21120;-76
2022/12/10 11:06:09;;;;;;;32.33;7.80;;;;;;;-143.84;79.59;45083.34;5092303;28;20984;-76
2022/12/10 11:08:40;;;;;;;15.73;8.47;;;;;;;-143.84;77.74;45111.91;5091975;28;20493;-76
2022/12/10 11:11:12;;;;;;;26.77;8.83;;;;;;;-143.84;78.41;45102.38;5092128;28;20469;-77
2022/12/10 11:13:40;;;;;;;21.03;7.83;;;;;;;-143.84;77.23;45119.53;5091641;28;20435;-76
2022/12/10 11:16:14;;;;;;;21.33;7.40;;;;;;;-143.84;76.76;45148.09;5091984;28;20446;-76
2022/12/10 11:18:52;;;;;;;20.23;8.00;;;;;;;-143.84;76.75;45121.44;5091884;28;20511;-76
2022/12/10 11:21:22;;;;;;;24.80;8.60;;;;;;;-143.84;76.71;45110.00;5091593;28;20920;-76
2022/12/10 11:23:53;;;;;;;26.63;8.57;;;;;;;-143.84;76.62;45129.03;5090840;28;20438;-76